sensor_id;sensor_type;location;lat;lon;timestamp;P1;durP1;ratioP1;P2;durP2;ratioP2
74269;SDS011;62754;48.252;11.654;2023-06-14T00:01:33;4.28;;;2.38;;
74269;SDS011;62754;48.252;11.654;2023-06-14T00:04:02;8.23;;;2.70;;
74269;SDS011;62754;48.252;11.654;2023-06-14T00:06:28;4.78;;;2.40;;
74269;SDS011;62754;48.252;11.654;2023-06-14T00:11:20;4.90;;;2.65;;
74269;SDS011;62754;48.252;11.654;2023-06-14T00:13:46;5.47;;;2.63;;
74269;SDS011;62754;48.252;11.654;2023-06-14T00:16:14;4.95;;;2.70;;
74269;SDS011;62754;48.252;11.654;2023-06-14T00:18:39;4.43;;;2.72;;
74269;SDS011;62754;48.252;11.654;2023-06-14T00:21:10;4.13;;;2.50;;
74269;SDS011;62754;48.252;11.654;2023-06-14T00:23:39;5.82;;;2.50;;
74269;SDS011;62754;48.252;11.654;2023-06-14T00:26:04;5.18;;;2.80;;
74269;SDS011;62754;48.252;11.654;2023-06-14T00:28:33;5.13;;;2.90;;
74269;SDS011;62754;48.252;11.654;2023-06-14T00:30:58;4.40;;;2.53;;
74269;SDS011;62754;48.252;11.654;2023-06-14T00:33:24;4.90;;;2.70;;
74269;SDS011;62754;48.252;11.654;2023-06-14T00:35:52;4.22;;;2.33;;
74269;SDS011;62754;48.252;11.654;2023-06-14T00:38:20;5.05;;;2.60;;
74269;SDS011;62754;48.252;11.654;2023-06-14T00:40:49;6.03;;;2.78;;
74269;SDS011;62754;48.252;11.654;2023-06-14T00:43:17;5.10;;;3.20;;
74269;SDS011;62754;48.252;11.654;2023-06-14T00:45:43;5.32;;;2.85;;
74269;SDS011;62754;48.252;11.654;2023-06-14T00:48:13;4.72;;;2.35;;
74269;SDS011;62754;48.252;11.654;2023-06-14T00:50:43;5.13;;;2.65;;
74269;SDS011;62754;48.252;11.654;2023-06-14T00:53:10;6.65;;;2.80;;
74269;SDS011;62754;48.252;11.654;2023-06-14T00:55:36;5.63;;;2.75;;
74269;SDS011;62754;48.252;11.654;2023-06-14T00:58:02;5.43;;;3.10;;
74269;SDS011;62754;48.252;11.654;2023-06-14T01:00:28;7.10;;;2.90;;
74269;SDS011;62754;48.252;11.654;2023-06-14T01:02:53;6.07;;;3.17;;
74269;SDS011;62754;48.252;11.654;2023-06-14T01:05:19;6.50;;;3.22;;
74269;SDS011;62754;48.252;11.654;2023-06-14T01:13:08;5.28;;;3.00;;
74269;SDS011;62754;48.252;11.654;2023-06-14T01:15:40;6.68;;;2.70;;
74269;SDS011;62754;48.252;11.654;2023-06-14T01:18:09;5.10;;;2.83;;
74269;SDS011;62754;48.252;11.654;2023-06-14T01:20:37;4.55;;;2.88;;
74269;SDS011;62754;48.252;11.654;2023-06-14T01:23:03;4.88;;;3.00;;
74269;SDS011;62754;48.252;11.654;2023-06-14T01:25:31;5.25;;;2.78;;
74269;SDS011;62754;48.252;11.654;2023-06-14T01:28:00;5.25;;;2.88;;
74269;SDS011;62754;48.252;11.654;2023-06-14T01:30:30;5.72;;;3.30;;
74269;SDS011;62754;48.252;11.654;2023-06-14T01:32:59;5.68;;;2.67;;
74269;SDS011;62754;48.252;11.654;2023-06-14T01:35:25;6.53;;;2.92;;
74269;SDS011;62754;48.252;11.654;2023-06-14T01:37:53;11.23;;;3.17;;
74269;SDS011;62754;48.252;11.654;2023-06-14T01:40:22;5.53;;;2.80;;
74269;SDS011;62754;48.252;11.654;2023-06-14T01:42:51;5.82;;;2.85;;
74269;SDS011;62754;48.252;11.654;2023-06-14T01:45:17;5.63;;;2.55;;
74269;SDS011;62754;48.252;11.654;2023-06-14T01:47:44;5.40;;;2.67;;
74269;SDS011;62754;48.252;11.654;2023-06-14T01:50:13;8.60;;;2.90;;
74269;SDS011;62754;48.252;11.654;2023-06-14T01:52:39;5.95;;;3.20;;
74269;SDS011;62754;48.252;11.654;2023-06-14T01:55:05;4.72;;;2.60;;
74269;SDS011;62754;48.252;11.654;2023-06-14T01:57:34;6.07;;;2.88;;
74269;SDS011;62754;48.252;11.654;2023-06-14T01:59:59;6.80;;;2.70;;
74269;SDS011;62754;48.252;11.654;2023-06-14T02:02:25;7.05;;;2.80;;
74269;SDS011;62754;48.252;11.654;2023-06-14T02:04:51;4.97;;;2.60;;
74269;SDS011;62754;48.252;11.654;2023-06-14T02:07:19;5.50;;;3.10;;
74269;SDS011;62754;48.252;11.654;2023-06-14T02:09:44;5.63;;;3.00;;
74269;SDS011;62754;48.252;11.654;2023-06-14T02:12:13;5.45;;;3.00;;
74269;SDS011;62754;48.252;11.654;2023-06-14T02:14:39;5.88;;;3.15;;
74269;SDS011;62754;48.252;11.654;2023-06-14T02:17:05;5.72;;;3.03;;
74269;SDS011;62754;48.252;11.654;2023-06-14T02:19:35;5.10;;;2.75;;
74269;SDS011;62754;48.252;11.654;2023-06-14T02:22:03;8.80;;;3.38;;
74269;SDS011;62754;48.252;11.654;2023-06-14T02:24:29;7.43;;;3.15;;
74269;SDS011;62754;48.252;11.654;2023-06-14T02:26:55;5.85;;;3.30;;
74269;SDS011;62754;48.252;11.654;2023-06-14T02:29:21;4.68;;;2.83;;
74269;SDS011;62754;48.252;11.654;2023-06-14T02:31:49;4.82;;;3.45;;
74269;SDS011;62754;48.252;11.654;2023-06-14T02:34:14;5.82;;;2.92;;
74269;SDS011;62754;48.252;11.654;2023-06-14T02:36:40;5.15;;;3.22;;
74269;SDS011;62754;48.252;11.654;2023-06-14T02:39:07;6.53;;;3.05;;
74269;SDS011;62754;48.252;11.654;2023-06-14T02:41:35;6.05;;;3.25;;
74269;SDS011;62754;48.252;11.654;2023-06-14T02:44:00;5.60;;;3.00;;
74269;SDS011;62754;48.252;11.654;2023-06-14T02:46:29;4.93;;;2.83;;
74269;SDS011;62754;48.252;11.654;2023-06-14T02:48:55;4.93;;;3.00;;
74269;SDS011;62754;48.252;11.654;2023-06-14T02:51:21;4.80;;;3.20;;
74269;SDS011;62754;48.252;11.654;2023-06-14T02:53:46;6.93;;;3.20;;
74269;SDS011;62754;48.252;11.654;2023-06-14T02:56:12;6.78;;;3.03;;
74269;SDS011;62754;48.252;11.654;2023-06-14T02:58:38;5.82;;;2.83;;
74269;SDS011;62754;48.252;11.654;2023-06-14T03:01:06;4.82;;;2.88;;
74269;SDS011;62754;48.252;11.654;2023-06-14T03:03:34;5.43;;;2.95;;
74269;SDS011;62754;48.252;11.654;2023-06-14T03:06:04;5.32;;;2.95;;
74269;SDS011;62754;48.252;11.654;2023-06-14T03:08:35;5.53;;;2.90;;
74269;SDS011;62754;48.252;11.654;2023-06-14T03:11:05;6.88;;;2.85;;
74269;SDS011;62754;48.252;11.654;2023-06-14T03:13:31;5.40;;;2.92;;
74269;SDS011;62754;48.252;11.654;2023-06-14T03:15:57;4.47;;;2.63;;
74269;SDS011;62754;48.252;11.654;2023-06-14T03:18:23;5.68;;;3.15;;
74269;SDS011;62754;48.252;11.654;2023-06-14T03:20:51;6.65;;;3.28;;
74269;SDS011;62754;48.252;11.654;2023-06-14T03:23:17;6.28;;;3.55;;
74269;SDS011;62754;48.252;11.654;2023-06-14T03:25:45;5.93;;;3.28;;
74269;SDS011;62754;48.252;11.654;2023-06-14T03:28:10;6.18;;;3.70;;
74269;SDS011;62754;48.252;11.654;2023-06-14T03:30:36;5.40;;;3.22;;
74269;SDS011;62754;48.252;11.654;2023-06-14T03:33:06;5.97;;;3.63;;
74269;SDS011;62754;48.252;11.654;2023-06-14T03:35:34;5.15;;;3.25;;
74269;SDS011;62754;48.252;11.654;2023-06-14T03:38:03;7.28;;;4.25;;
74269;SDS011;62754;48.252;11.654;2023-06-14T03:40:29;8.18;;;3.85;;
74269;SDS011;62754;48.252;11.654;2023-06-14T03:42:54;5.53;;;3.72;;
74269;SDS011;62754;48.252;11.654;2023-06-14T03:45:23;6.43;;;3.85;;
74269;SDS011;62754;48.252;11.654;2023-06-14T03:47:51;10.20;;;4.05;;
74269;SDS011;62754;48.252;11.654;2023-06-14T03:50:19;7.75;;;3.65;;
74269;SDS011;62754;48.252;11.654;2023-06-14T03:52:47;11.18;;;3.90;;
74269;SDS011;62754;48.252;11.654;2023-06-14T03:55:16;6.72;;;4.05;;
74269;SDS011;62754;48.252;11.654;2023-06-14T03:57:43;7.00;;;4.05;;
74269;SDS011;62754;48.252;11.654;2023-06-14T04:00:09;7.57;;;4.15;;
74269;SDS011;62754;48.252;11.654;2023-06-14T04:02:38;5.57;;;3.45;;
74269;SDS011;62754;48.252;11.654;2023-06-14T04:05:06;8.10;;;3.95;;
74269;SDS011;62754;48.252;11.654;2023-06-14T04:07:34;7.15;;;4.40;;
74269;SDS011;62754;48.252;11.654;2023-06-14T04:10:00;7.88;;;4.22;;
74269;SDS011;62754;48.252;11.654;2023-06-14T04:12:26;6.45;;;3.88;;
74269;SDS011;62754;48.252;11.654;2023-06-14T04:14:52;6.18;;;4.18;;
74269;SDS011;62754;48.252;11.654;2023-06-14T04:17:18;6.38;;;3.90;;
74269;SDS011;62754;48.252;11.654;2023-06-14T04:19:43;7.88;;;4.22;;
74269;SDS011;62754;48.252;11.654;2023-06-14T04:22:09;7.93;;;4.30;;
74269;SDS011;62754;48.252;11.654;2023-06-14T04:24:35;8.13;;;4.10;;
74269;SDS011;62754;48.252;11.654;2023-06-14T04:27:03;7.15;;;3.80;;
74269;SDS011;62754;48.252;11.654;2023-06-14T04:29:29;7.57;;;4.07;;
74269;SDS011;62754;48.252;11.654;2023-06-14T04:31:55;7.95;;;3.80;;
74269;SDS011;62754;48.252;11.654;2023-06-14T04:34:21;7.13;;;3.72;;
74269;SDS011;62754;48.252;11.654;2023-06-14T04:36:49;6.60;;;4.30;;
74269;SDS011;62754;48.252;11.654;2023-06-14T04:39:15;6.53;;;3.95;;
74269;SDS011;62754;48.252;11.654;2023-06-14T04:41:41;7.32;;;3.92;;
74269;SDS011;62754;48.252;11.654;2023-06-14T04:44:10;6.00;;;3.35;;
74269;SDS011;62754;48.252;11.654;2023-06-14T04:46:36;7.35;;;3.95;;
74269;SDS011;62754;48.252;11.654;2023-06-14T04:49:02;5.60;;;3.50;;
74269;SDS011;62754;48.252;11.654;2023-06-14T04:51:30;6.68;;;3.95;;
74269;SDS011;62754;48.252;11.654;2023-06-14T04:53:58;5.88;;;3.28;;
74269;SDS011;62754;48.252;11.654;2023-06-14T04:56:26;7.45;;;4.03;;
74269;SDS011;62754;48.252;11.654;2023-06-14T04:58:52;6.47;;;3.78;;
74269;SDS011;62754;48.252;11.654;2023-06-14T05:01:20;7.75;;;3.90;;
74269;SDS011;62754;48.252;11.654;2023-06-14T05:03:48;6.78;;;3.70;;
74269;SDS011;62754;48.252;11.654;2023-06-14T05:06:16;7.05;;;4.30;;
74269;SDS011;62754;48.252;11.654;2023-06-14T05:08:44;6.07;;;3.63;;
74269;SDS011;62754;48.252;11.654;2023-06-14T05:11:13;7.43;;;3.83;;
74269;SDS011;62754;48.252;11.654;2023-06-14T05:13:41;6.47;;;3.53;;
74269;SDS011;62754;48.252;11.654;2023-06-14T05:16:07;8.48;;;4.45;;
74269;SDS011;62754;48.252;11.654;2023-06-14T05:18:33;5.60;;;3.35;;
74269;SDS011;62754;48.252;11.654;2023-06-14T05:20:58;5.45;;;3.15;;
74269;SDS011;62754;48.252;11.654;2023-06-14T05:23:27;7.53;;;3.55;;
74269;SDS011;62754;48.252;11.654;2023-06-14T05:25:57;7.50;;;3.60;;
74269;SDS011;62754;48.252;11.654;2023-06-14T05:28:23;6.25;;;3.58;;
74269;SDS011;62754;48.252;11.654;2023-06-14T05:30:54;5.35;;;3.58;;
74269;SDS011;62754;48.252;11.654;2023-06-14T05:33:25;9.43;;;4.55;;
74269;SDS011;62754;48.252;11.654;2023-06-14T05:35:51;6.78;;;3.20;;
74269;SDS011;62754;48.252;11.654;2023-06-14T05:38:19;7.03;;;3.50;;
74269;SDS011;62754;48.252;11.654;2023-06-14T05:40:47;6.28;;;3.45;;
74269;SDS011;62754;48.252;11.654;2023-06-14T05:43:15;5.65;;;3.35;;
74269;SDS011;62754;48.252;11.654;2023-06-14T05:45:41;5.70;;;3.22;;
74269;SDS011;62754;48.252;11.654;2023-06-14T05:48:07;6.30;;;3.42;;
74269;SDS011;62754;48.252;11.654;2023-06-14T05:50:34;5.97;;;3.55;;
74269;SDS011;62754;48.252;11.654;2023-06-14T05:53:03;6.97;;;3.35;;
74269;SDS011;62754;48.252;11.654;2023-06-14T05:55:28;5.78;;;3.30;;
74269;SDS011;62754;48.252;11.654;2023-06-14T05:57:54;6.28;;;3.38;;
74269;SDS011;62754;48.252;11.654;2023-06-14T06:00:23;6.60;;;3.65;;
74269;SDS011;62754;48.252;11.654;2023-06-14T06:02:49;5.30;;;3.20;;
74269;SDS011;62754;48.252;11.654;2023-06-14T06:05:14;5.30;;;3.00;;
74269;SDS011;62754;48.252;11.654;2023-06-14T06:07:40;6.93;;;2.95;;
74269;SDS011;62754;48.252;11.654;2023-06-14T06:10:07;7.30;;;3.50;;
74269;SDS011;62754;48.252;11.654;2023-06-14T06:12:35;6.32;;;3.47;;
74269;SDS011;62754;48.252;11.654;2023-06-14T06:15:03;6.60;;;3.33;;
74269;SDS011;62754;48.252;11.654;2023-06-14T06:17:32;5.88;;;3.08;;
74269;SDS011;62754;48.252;11.654;2023-06-14T06:20:00;5.95;;;4.00;;
74269;SDS011;62754;48.252;11.654;2023-06-14T06:22:26;6.53;;;3.83;;
74269;SDS011;62754;48.252;11.654;2023-06-14T06:24:54;6.38;;;3.45;;
74269;SDS011;62754;48.252;11.654;2023-06-14T06:27:20;7.82;;;3.33;;
74269;SDS011;62754;48.252;11.654;2023-06-14T06:29:48;9.30;;;3.70;;
74269;SDS011;62754;48.252;11.654;2023-06-14T06:32:17;6.68;;;3.80;;
74269;SDS011;62754;48.252;11.654;2023-06-14T06:34:45;5.93;;;3.30;;
74269;SDS011;62754;48.252;11.654;2023-06-14T06:37:11;8.85;;;3.42;;
74269;SDS011;62754;48.252;11.654;2023-06-14T06:39:39;6.05;;;3.58;;
74269;SDS011;62754;48.252;11.654;2023-06-14T06:42:05;7.38;;;3.47;;
74269;SDS011;62754;48.252;11.654;2023-06-14T06:44:31;8.13;;;3.33;;
74269;SDS011;62754;48.252;11.654;2023-06-14T06:47:01;6.28;;;3.65;;
74269;SDS011;62754;48.252;11.654;2023-06-14T06:49:32;6.38;;;3.58;;
74269;SDS011;62754;48.252;11.654;2023-06-14T06:52:01;7.30;;;3.20;;
74269;SDS011;62754;48.252;11.654;2023-06-14T06:54:28;6.57;;;2.95;;
74269;SDS011;62754;48.252;11.654;2023-06-14T06:56:56;6.57;;;3.05;;
74269;SDS011;62754;48.252;11.654;2023-06-14T06:59:22;8.02;;;2.80;;
74269;SDS011;62754;48.252;11.654;2023-06-14T07:01:48;5.93;;;2.88;;
74269;SDS011;62754;48.252;11.654;2023-06-14T07:04:14;6.68;;;3.08;;
74269;SDS011;62754;48.252;11.654;2023-06-14T07:06:42;4.70;;;3.05;;
74269;SDS011;62754;48.252;11.654;2023-06-14T07:09:08;5.97;;;2.67;;
74269;SDS011;62754;48.252;11.654;2023-06-14T07:11:34;8.82;;;3.20;;
74269;SDS011;62754;48.252;11.654;2023-06-14T07:14:02;7.80;;;2.67;;
74269;SDS011;62754;48.252;11.654;2023-06-14T07:16:30;4.72;;;2.78;;
74269;SDS011;62754;48.252;11.654;2023-06-14T07:18:58;5.57;;;3.25;;
74269;SDS011;62754;48.252;11.654;2023-06-14T07:21:26;8.52;;;3.00;;
74269;SDS011;62754;48.252;11.654;2023-06-14T07:23:52;6.63;;;3.30;;
74269;SDS011;62754;48.252;11.654;2023-06-14T07:26:19;3.80;;;2.60;;
74269;SDS011;62754;48.252;11.654;2023-06-14T07:28:45;5.00;;;2.83;;
74269;SDS011;62754;48.252;11.654;2023-06-14T07:31:14;6.65;;;2.85;;
74269;SDS011;62754;48.252;11.654;2023-06-14T07:36:06;4.60;;;2.63;;
74269;SDS011;62754;48.252;11.654;2023-06-14T07:38:34;5.82;;;2.90;;
74269;SDS011;62754;48.252;11.654;2023-06-14T07:41:02;5.13;;;2.78;;
74269;SDS011;62754;48.252;11.654;2023-06-14T07:43:30;4.18;;;2.67;;
74269;SDS011;62754;48.252;11.654;2023-06-14T07:45:56;4.10;;;2.50;;
74269;SDS011;62754;48.252;11.654;2023-06-14T07:48:27;5.22;;;2.85;;
74269;SDS011;62754;48.252;11.654;2023-06-14T07:50:52;5.43;;;2.30;;
74269;SDS011;62754;48.252;11.654;2023-06-14T07:53:21;4.18;;;2.63;;
74269;SDS011;62754;48.252;11.654;2023-06-14T07:55:51;4.65;;;2.47;;
74269;SDS011;62754;48.252;11.654;2023-06-14T07:58:19;4.57;;;2.45;;
74269;SDS011;62754;48.252;11.654;2023-06-14T08:00:45;5.28;;;2.70;;
74269;SDS011;62754;48.252;11.654;2023-06-14T08:03:13;6.22;;;2.80;;
74269;SDS011;62754;48.252;11.654;2023-06-14T08:05:38;6.57;;;2.40;;
74269;SDS011;62754;48.252;11.654;2023-06-14T08:08:07;5.07;;;2.70;;
74269;SDS011;62754;48.252;11.654;2023-06-14T08:10:32;6.50;;;2.60;;
74269;SDS011;62754;48.252;11.654;2023-06-14T08:12:58;5.00;;;2.55;;
74269;SDS011;62754;48.252;11.654;2023-06-14T08:15:24;5.82;;;2.63;;
74269;SDS011;62754;48.252;11.654;2023-06-14T08:17:50;3.97;;;2.30;;
74269;SDS011;62754;48.252;11.654;2023-06-14T08:20:17;4.55;;;2.70;;
74269;SDS011;62754;48.252;11.654;2023-06-14T08:22:43;4.40;;;2.45;;
74269;SDS011;62754;48.252;11.654;2023-06-14T08:25:09;4.32;;;2.50;;
74269;SDS011;62754;48.252;11.654;2023-06-14T08:27:35;6.80;;;2.80;;
74269;SDS011;62754;48.252;11.654;2023-06-14T08:30:01;5.80;;;2.50;;
74269;SDS011;62754;48.252;11.654;2023-06-14T08:32:26;4.10;;;2.58;;
74269;SDS011;62754;48.252;11.654;2023-06-14T08:34:57;5.45;;;2.63;;
74269;SDS011;62754;48.252;11.654;2023-06-14T08:37:22;4.25;;;2.40;;
74269;SDS011;62754;48.252;11.654;2023-06-14T08:39:48;8.75;;;2.92;;
74269;SDS011;62754;48.252;11.654;2023-06-14T08:42:16;6.47;;;2.60;;
74269;SDS011;62754;48.252;11.654;2023-06-14T08:44:44;4.80;;;2.45;;
74269;SDS011;62754;48.252;11.654;2023-06-14T08:47:10;6.10;;;2.25;;
74269;SDS011;62754;48.252;11.654;2023-06-14T08:49:36;3.80;;;2.42;;
74269;SDS011;62754;48.252;11.654;2023-06-14T08:52:03;5.97;;;2.35;;
74269;SDS011;62754;48.252;11.654;2023-06-14T08:54:33;4.47;;;2.42;;
74269;SDS011;62754;48.252;11.654;2023-06-14T08:57:00;6.97;;;3.10;;
74269;SDS011;62754;48.252;11.654;2023-06-14T08:59:26;5.15;;;2.50;;
74269;SDS011;62754;48.252;11.654;2023-06-14T09:01:54;6.07;;;2.53;;
74269;SDS011;62754;48.252;11.654;2023-06-14T09:04:20;4.20;;;2.60;;
74269;SDS011;62754;48.252;11.654;2023-06-14T09:06:47;5.10;;;2.65;;
74269;SDS011;62754;48.252;11.654;2023-06-14T09:09:13;6.90;;;2.40;;
74269;SDS011;62754;48.252;11.654;2023-06-14T09:11:43;4.00;;;2.28;;
74269;SDS011;62754;48.252;11.654;2023-06-14T09:14:09;4.25;;;2.67;;
74269;SDS011;62754;48.252;11.654;2023-06-14T09:16:38;5.90;;;2.70;;
74269;SDS011;62754;48.252;11.654;2023-06-14T09:19:05;4.63;;;2.63;;
74269;SDS011;62754;48.252;11.654;2023-06-14T09:21:33;5.50;;;2.20;;
74269;SDS011;62754;48.252;11.654;2023-06-14T09:24:01;3.78;;;2.20;;
74269;SDS011;62754;48.252;11.654;2023-06-14T09:26:29;4.47;;;2.20;;
74269;SDS011;62754;48.252;11.654;2023-06-14T09:28:55;4.85;;;2.47;;
74269;SDS011;62754;48.252;11.654;2023-06-14T09:33:48;6.53;;;2.15;;
74269;SDS011;62754;48.252;11.654;2023-06-14T09:36:17;4.75;;;2.10;;
74269;SDS011;62754;48.252;11.654;2023-06-14T09:38:51;4.38;;;2.28;;
74269;SDS011;62754;48.252;11.654;2023-06-14T09:41:39;4.88;;;2.33;;
74269;SDS011;62754;48.252;11.654;2023-06-14T09:44:06;4.65;;;2.25;;
74269;SDS011;62754;48.252;11.654;2023-06-14T09:46:35;4.55;;;2.20;;
74269;SDS011;62754;48.252;11.654;2023-06-14T09:49:04;5.57;;;2.60;;
74269;SDS011;62754;48.252;11.654;2023-06-14T09:51:31;5.45;;;1.92;;
74269;SDS011;62754;48.252;11.654;2023-06-14T09:54:03;4.63;;;2.00;;
74269;SDS011;62754;48.252;11.654;2023-06-14T09:56:40;3.67;;;2.13;;
74269;SDS011;62754;48.252;11.654;2023-06-14T09:59:10;12.15;;;2.90;;
74269;SDS011;62754;48.252;11.654;2023-06-14T10:01:41;5.35;;;2.20;;
74269;SDS011;62754;48.252;11.654;2023-06-14T10:06:36;4.10;;;2.00;;
74269;SDS011;62754;48.252;11.654;2023-06-14T10:09:07;5.53;;;2.22;;
74269;SDS011;62754;48.252;11.654;2023-06-14T10:11:34;4.25;;;2.20;;
74269;SDS011;62754;48.252;11.654;2023-06-14T10:14:04;4.82;;;2.28;;
74269;SDS011;62754;48.252;11.654;2023-06-14T10:19:11;3.85;;;2.08;;
74269;SDS011;62754;48.252;11.654;2023-06-14T10:21:46;5.10;;;2.13;;
74269;SDS011;62754;48.252;11.654;2023-06-14T10:24:24;5.25;;;2.70;;
74269;SDS011;62754;48.252;11.654;2023-06-14T10:26:57;4.93;;;2.20;;
74269;SDS011;62754;48.252;11.654;2023-06-14T10:29:23;4.20;;;2.42;;
74269;SDS011;62754;48.252;11.654;2023-06-14T10:34:30;5.20;;;2.40;;
74269;SDS011;62754;48.252;11.654;2023-06-14T10:37:00;5.57;;;2.50;;
74269;SDS011;62754;48.252;11.654;2023-06-14T10:39:33;7.00;;;2.67;;
74269;SDS011;62754;48.252;11.654;2023-06-14T10:42:04;4.63;;;2.65;;
74269;SDS011;62754;48.252;11.654;2023-06-14T10:44:33;6.53;;;2.40;;
74269;SDS011;62754;48.252;11.654;2023-06-14T10:47:06;5.82;;;2.10;;
74269;SDS011;62754;48.252;11.654;2023-06-14T10:49:42;3.92;;;2.30;;
74269;SDS011;62754;48.252;11.654;2023-06-14T10:52:14;4.30;;;2.47;;
74269;SDS011;62754;48.252;11.654;2023-06-14T10:55:07;5.78;;;2.70;;
74269;SDS011;62754;48.252;11.654;2023-06-14T10:57:35;4.55;;;2.45;;
74269;SDS011;62754;48.252;11.654;2023-06-14T11:00:03;4.88;;;2.63;;
74269;SDS011;62754;48.252;11.654;2023-06-14T11:05:39;7.40;;;2.13;;
74269;SDS011;62754;48.252;11.654;2023-06-14T11:10:42;5.40;;;2.60;;
74269;SDS011;62754;48.252;11.654;2023-06-14T11:13:11;5.13;;;2.50;;
74269;SDS011;62754;48.252;11.654;2023-06-14T11:18:09;4.70;;;2.53;;
74269;SDS011;62754;48.252;11.654;2023-06-14T11:20:37;4.00;;;2.35;;
74269;SDS011;62754;48.252;11.654;2023-06-14T11:23:05;4.32;;;2.58;;
74269;SDS011;62754;48.252;11.654;2023-06-14T11:25:31;5.50;;;2.63;;
74269;SDS011;62754;48.252;11.654;2023-06-14T11:27:59;4.50;;;2.58;;
74269;SDS011;62754;48.252;11.654;2023-06-14T11:30:27;4.05;;;2.22;;
74269;SDS011;62754;48.252;11.654;2023-06-14T11:32:58;4.85;;;2.53;;
74269;SDS011;62754;48.252;11.654;2023-06-14T11:35:24;5.10;;;2.20;;
74269;SDS011;62754;48.252;11.654;2023-06-14T11:37:52;4.07;;;2.85;;
74269;SDS011;62754;48.252;11.654;2023-06-14T11:40:19;4.40;;;2.72;;
74269;SDS011;62754;48.252;11.654;2023-06-14T11:42:45;7.68;;;2.70;;
74269;SDS011;62754;48.252;11.654;2023-06-14T11:45:11;4.97;;;2.67;;
74269;SDS011;62754;48.252;11.654;2023-06-14T11:47:41;4.80;;;2.50;;
74269;SDS011;62754;48.252;11.654;2023-06-14T11:50:10;4.07;;;2.42;;
74269;SDS011;62754;48.252;11.654;2023-06-14T11:52:36;4.18;;;2.65;;
74269;SDS011;62754;48.252;11.654;2023-06-14T11:55:05;3.65;;;2.30;;
74269;SDS011;62754;48.252;11.654;2023-06-14T11:57:34;5.82;;;2.63;;
74269;SDS011;62754;48.252;11.654;2023-06-14T12:00:04;4.40;;;2.35;;
74269;SDS011;62754;48.252;11.654;2023-06-14T12:02:31;4.63;;;2.40;;
74269;SDS011;62754;48.252;11.654;2023-06-14T12:05:03;7.72;;;2.70;;
74269;SDS011;62754;48.252;11.654;2023-06-14T12:07:30;4.93;;;2.45;;
74269;SDS011;62754;48.252;11.654;2023-06-14T12:12:21;6.63;;;2.33;;
74269;SDS011;62754;48.252;11.654;2023-06-14T12:14:54;4.60;;;2.20;;
74269;SDS011;62754;48.252;11.654;2023-06-14T12:17:21;4.28;;;2.30;;
74269;SDS011;62754;48.252;11.654;2023-06-14T12:19:48;5.63;;;2.33;;
74269;SDS011;62754;48.252;11.654;2023-06-14T12:22:16;4.00;;;2.67;;
74269;SDS011;62754;48.252;11.654;2023-06-14T12:24:46;3.92;;;2.70;;
74269;SDS011;62754;48.252;11.654;2023-06-14T12:27:17;7.50;;;3.08;;
74269;SDS011;62754;48.252;11.654;2023-06-14T12:29:46;3.35;;;2.45;;
74269;SDS011;62754;48.252;11.654;2023-06-14T12:32:30;4.68;;;2.50;;
74269;SDS011;62754;48.252;11.654;2023-06-14T12:34:55;5.53;;;2.70;;
74269;SDS011;62754;48.252;11.654;2023-06-14T12:37:21;4.57;;;2.60;;
74269;SDS011;62754;48.252;11.654;2023-06-14T12:39:47;4.15;;;2.53;;
74269;SDS011;62754;48.252;11.654;2023-06-14T12:42:13;3.90;;;2.20;;
74269;SDS011;62754;48.252;11.654;2023-06-14T12:44:41;3.63;;;2.30;;
74269;SDS011;62754;48.252;11.654;2023-06-14T12:47:07;3.75;;;2.50;;
74269;SDS011;62754;48.252;11.654;2023-06-14T12:49:33;7.10;;;2.65;;
74269;SDS011;62754;48.252;11.654;2023-06-14T12:52:01;4.03;;;2.38;;
74269;SDS011;62754;48.252;11.654;2023-06-14T12:54:27;3.53;;;2.42;;
74269;SDS011;62754;48.252;11.654;2023-06-14T12:56:52;5.10;;;2.40;;
74269;SDS011;62754;48.252;11.654;2023-06-14T12:59:18;6.03;;;2.63;;
74269;SDS011;62754;48.252;11.654;2023-06-14T13:01:48;4.60;;;3.08;;
74269;SDS011;62754;48.252;11.654;2023-06-14T13:04:14;5.45;;;2.65;;
74269;SDS011;62754;48.252;11.654;2023-06-14T13:06:40;3.53;;;2.38;;
74269;SDS011;62754;48.252;11.654;2023-06-14T13:09:08;3.90;;;2.45;;
74269;SDS011;62754;48.252;11.654;2023-06-14T13:11:34;3.53;;;2.20;;
74269;SDS011;62754;48.252;11.654;2023-06-14T13:14:00;4.78;;;2.72;;
74269;SDS011;62754;48.252;11.654;2023-06-14T13:16:27;3.83;;;2.70;;
74269;SDS011;62754;48.252;11.654;2023-06-14T13:18:55;4.05;;;2.30;;
74269;SDS011;62754;48.252;11.654;2023-06-14T13:21:23;4.88;;;2.40;;
74269;SDS011;62754;48.252;11.654;2023-06-14T13:23:53;4.18;;;2.33;;
74269;SDS011;62754;48.252;11.654;2023-06-14T13:26:19;4.90;;;2.58;;
74269;SDS011;62754;48.252;11.654;2023-06-14T13:28:45;3.72;;;2.28;;
74269;SDS011;62754;48.252;11.654;2023-06-14T13:31:13;4.82;;;2.20;;
74269;SDS011;62754;48.252;11.654;2023-06-14T13:33:39;5.15;;;2.20;;
74269;SDS011;62754;48.252;11.654;2023-06-14T13:36:04;5.07;;;2.40;;
74269;SDS011;62754;48.252;11.654;2023-06-14T13:38:33;4.65;;;2.47;;
74269;SDS011;62754;48.252;11.654;2023-06-14T13:40:58;3.65;;;2.38;;
74269;SDS011;62754;48.252;11.654;2023-06-14T13:45:52;4.75;;;2.50;;
74269;SDS011;62754;48.252;11.654;2023-06-14T13:48:20;4.57;;;2.25;;
74269;SDS011;62754;48.252;11.654;2023-06-14T13:53:11;5.82;;;2.65;;
74269;SDS011;62754;48.252;11.654;2023-06-14T13:58:03;4.90;;;2.78;;
74269;SDS011;62754;48.252;11.654;2023-06-14T14:02:54;4.80;;;2.40;;
74269;SDS011;62754;48.252;11.654;2023-06-14T14:05:22;5.07;;;2.58;;
74269;SDS011;62754;48.252;11.654;2023-06-14T14:07:48;4.28;;;2.40;;
74269;SDS011;62754;48.252;11.654;2023-06-14T14:12:39;4.93;;;2.33;;
74269;SDS011;62754;48.252;11.654;2023-06-14T14:17:33;3.67;;;2.40;;
74269;SDS011;62754;48.252;11.654;2023-06-14T14:19:59;4.13;;;2.20;;
74269;SDS011;62754;48.252;11.654;2023-06-14T14:22:25;5.25;;;2.78;;
74269;SDS011;62754;48.252;11.654;2023-06-14T14:24:53;4.22;;;2.80;;
74269;SDS011;62754;48.252;11.654;2023-06-14T14:27:21;4.85;;;2.42;;
74269;SDS011;62754;48.252;11.654;2023-06-14T14:29:49;5.55;;;2.33;;
74269;SDS011;62754;48.252;11.654;2023-06-14T14:32:17;5.82;;;2.40;;
74269;SDS011;62754;48.252;11.654;2023-06-14T14:34:45;3.92;;;2.50;;
74269;SDS011;62754;48.252;11.654;2023-06-14T14:37:10;5.22;;;2.40;;
74269;SDS011;62754;48.252;11.654;2023-06-14T14:39:36;6.00;;;2.50;;
74269;SDS011;62754;48.252;11.654;2023-06-14T14:42:04;4.15;;;2.60;;
74269;SDS011;62754;48.252;11.654;2023-06-14T14:44:30;4.72;;;2.90;;
74269;SDS011;62754;48.252;11.654;2023-06-14T14:46:56;4.30;;;2.53;;
74269;SDS011;62754;48.252;11.654;2023-06-14T14:49:24;5.28;;;2.35;;
74269;SDS011;62754;48.252;11.654;2023-06-14T14:51:50;4.95;;;2.67;;
74269;SDS011;62754;48.252;11.654;2023-06-14T14:54:16;5.20;;;2.40;;
74269;SDS011;62754;48.252;11.654;2023-06-14T14:56:43;4.10;;;2.28;;
74269;SDS011;62754;48.252;11.654;2023-06-14T14:59:09;4.45;;;2.40;;
74269;SDS011;62754;48.252;11.654;2023-06-14T15:01:35;4.00;;;2.45;;
74269;SDS011;62754;48.252;11.654;2023-06-14T15:04:03;4.47;;;2.53;;
74269;SDS011;62754;48.252;11.654;2023-06-14T15:06:29;4.82;;;2.60;;
74269;SDS011;62754;48.252;11.654;2023-06-14T15:08:57;7.15;;;2.42;;
74269;SDS011;62754;48.252;11.654;2023-06-14T15:13:48;4.03;;;2.33;;
74269;SDS011;62754;48.252;11.654;2023-06-14T15:18:42;5.85;;;2.70;;
74269;SDS011;62754;48.252;11.654;2023-06-14T15:21:10;5.38;;;2.80;;
74269;SDS011;62754;48.252;11.654;2023-06-14T15:23:38;4.07;;;2.72;;
74269;SDS011;62754;48.252;11.654;2023-06-14T15:26:03;4.65;;;2.40;;